sensor_id;sensor_type;location;lat;lon;timestamp;P1;durP1;ratioP1;P2;durP2;ratioP2
22606;SDS011;11470;20.968;105.834;2023-02-01T00:04:40;116.00;;;60.25;;
22606;SDS011;11470;20.968;105.834;2023-02-01T00:09:46;93.40;;;51.85;;
22606;SDS011;11470;20.968;105.834;2023-02-01T00:14:52;57.88;;;32.67;;
22606;SDS011;11470;20.968;105.834;2023-02-01T00:19:58;65.72;;;34.72;;
22606;SDS011;11470;20.968;105.834;2023-02-01T00:25:04;47.03;;;26.80;;
22606;SDS011;11470;20.968;105.834;2023-02-01T00:30:11;55.13;;;31.35;;
22606;SDS011;11470;20.968;105.834;2023-02-01T00:35:17;81.13;;;38.72;;
22606;SDS011;11470;20.968;105.834;2023-02-01T00:40:23;55.15;;;27.77;;
22606;SDS011;11470;20.968;105.834;2023-02-01T00:45:36;88.68;;;43.17;;
22606;SDS011;11470;20.968;105.834;2023-02-01T00:55:48;82.72;;;38.63;;
22606;SDS011;11470;20.968;105.834;2023-02-01T01:01:08;78.72;;;40.67;;
22606;SDS011;11470;20.968;105.834;2023-02-01T01:06:27;103.40;;;47.42;;
22606;SDS011;11470;20.968;105.834;2023-02-01T01:11:37;105.82;;;49.70;;
22606;SDS011;11470;20.968;105.834;2023-02-01T01:16:44;76.40;;;38.22;;
22606;SDS011;11470;20.968;105.834;2023-02-01T01:21:49;96.40;;;42.80;;
22606;SDS011;11470;20.968;105.834;2023-02-01T01:26:56;103.70;;;49.78;;
22606;SDS011;11470;20.968;105.834;2023-02-01T01:32:02;107.80;;;50.50;;
22606;SDS011;11470;20.968;105.834;2023-02-01T01:37:08;111.07;;;52.95;;
22606;SDS011;11470;20.968;105.834;2023-02-01T01:42:14;106.43;;;52.05;;
22606;SDS011;11470;20.968;105.834;2023-02-01T01:52:27;114.35;;;54.92;;
22606;SDS011;11470;20.968;105.834;2023-02-01T01:57:35;110.15;;;54.50;;
22606;SDS011;11470;20.968;105.834;2023-02-01T02:02:45;103.22;;;46.63;;
22606;SDS011;11470;20.968;105.834;2023-02-01T02:07:53;100.43;;;51.22;;
22606;SDS011;11470;20.968;105.834;2023-02-01T02:13:03;104.65;;;54.20;;
22606;SDS011;11470;20.968;105.834;2023-02-01T02:18:26;115.85;;;59.67;;
22606;SDS011;11470;20.968;105.834;2023-02-01T02:46:32;111.65;;;59.17;;
22606;SDS011;11470;20.968;105.834;2023-02-01T03:08:12;94.75;;;54.97;;
22606;SDS011;11470;20.968;105.834;2023-02-01T03:19:12;105.65;;;56.22;;
22606;SDS011;11470;20.968;105.834;2023-02-01T03:24:35;111.70;;;60.53;;
22606;SDS011;11470;20.968;105.834;2023-02-01T03:35:17;96.13;;;55.15;;
22606;SDS011;11470;20.968;105.834;2023-02-01T03:40:30;83.53;;;48.10;;
22606;SDS011;11470;20.968;105.834;2023-02-01T03:45:46;105.20;;;57.70;;
22606;SDS011;11470;20.968;105.834;2023-02-01T03:51:04;95.28;;;52.25;;
22606;SDS011;11470;20.968;105.834;2023-02-01T03:56:12;95.57;;;52.30;;
22606;SDS011;11470;20.968;105.834;2023-02-01T04:01:22;95.90;;;53.97;;
22606;SDS011;11470;20.968;105.834;2023-02-01T04:06:40;91.05;;;49.22;;
22606;SDS011;11470;20.968;105.834;2023-02-01T04:11:49;83.13;;;45.95;;
22606;SDS011;11470;20.968;105.834;2023-02-01T04:17:05;87.75;;;51.17;;
22606;SDS011;11470;20.968;105.834;2023-02-01T04:22:21;72.72;;;40.88;;
22606;SDS011;11470;20.968;105.834;2023-02-01T04:27:36;80.45;;;38.78;;
22606;SDS011;11470;20.968;105.834;2023-02-01T04:33:01;80.88;;;40.47;;
22606;SDS011;11470;20.968;105.834;2023-02-01T04:38:14;71.90;;;38.47;;
22606;SDS011;11470;20.968;105.834;2023-02-01T04:43:40;74.63;;;38.47;;
22606;SDS011;11470;20.968;105.834;2023-02-01T04:49:10;81.18;;;39.78;;
22606;SDS011;11470;20.968;105.834;2023-02-01T04:54:22;84.50;;;40.20;;
22606;SDS011;11470;20.968;105.834;2023-02-01T05:18:53;60.90;;;28.92;;
22606;SDS011;11470;20.968;105.834;2023-02-01T05:23:59;84.72;;;45.58;;
22606;SDS011;11470;20.968;105.834;2023-02-01T05:29:18;81.10;;;45.08;;
22606;SDS011;11470;20.968;105.834;2023-02-01T05:34:48;71.63;;;37.08;;
22606;SDS011;11470;20.968;105.834;2023-02-01T05:39:56;78.70;;;45.65;;
22606;SDS011;11470;20.968;105.834;2023-02-01T05:45:12;168.27;;;44.90;;
22606;SDS011;11470;20.968;105.834;2023-02-01T05:50:18;60.28;;;21.77;;
22606;SDS011;11470;20.968;105.834;2023-02-01T05:55:31;57.15;;;23.60;;
22606;SDS011;11470;20.968;105.834;2023-02-01T06:00:44;107.43;;;38.05;;
22606;SDS011;11470;20.968;105.834;2023-02-01T06:05:53;85.22;;;46.13;;
22606;SDS011;11470;20.968;105.834;2023-02-01T06:11:30;113.18;;;38.05;;
22606;SDS011;11470;20.968;105.834;2023-02-01T06:16:36;91.13;;;41.47;;
22606;SDS011;11470;20.968;105.834;2023-02-01T06:21:44;104.40;;;40.90;;
22606;SDS011;11470;20.968;105.834;2023-02-01T06:26:52;79.93;;;39.03;;
22606;SDS011;11470;20.968;105.834;2023-02-01T06:31:59;53.28;;;21.27;;
22606;SDS011;11470;20.968;105.834;2023-02-01T06:37:14;72.20;;;32.95;;
22606;SDS011;11470;20.968;105.834;2023-02-01T06:42:20;52.85;;;23.55;;
22606;SDS011;11470;20.968;105.834;2023-02-01T06:47:28;63.42;;;36.78;;
22606;SDS011;11470;20.968;105.834;2023-02-01T06:52:39;59.45;;;35.30;;
22606;SDS011;11470;20.968;105.834;2023-02-01T06:57:52;53.78;;;31.23;;
22606;SDS011;11470;20.968;105.834;2023-02-01T07:02:59;52.78;;;31.13;;
22606;SDS011;11470;20.968;105.834;2023-02-01T07:08:06;65.47;;;39.28;;
22606;SDS011;11470;20.968;105.834;2023-02-01T07:13:16;50.47;;;30.35;;
22606;SDS011;11470;20.968;105.834;2023-02-01T07:18:23;54.75;;;31.48;;
22606;SDS011;11470;20.968;105.834;2023-02-01T07:23:33;60.05;;;36.33;;
22606;SDS011;11470;20.968;105.834;2023-02-01T07:28:46;46.35;;;26.85;;
22606;SDS011;11470;20.968;105.834;2023-02-01T07:34:01;68.85;;;35.65;;
22606;SDS011;11470;20.968;105.834;2023-02-01T07:39:09;40.33;;;23.73;;
22606;SDS011;11470;20.968;105.834;2023-02-01T07:44:19;38.50;;;19.80;;
22606;SDS011;11470;20.968;105.834;2023-02-01T07:49:27;44.88;;;21.38;;
22606;SDS011;11470;20.968;105.834;2023-02-01T07:54:34;42.83;;;20.58;;
22606;SDS011;11470;20.968;105.834;2023-02-01T07:59:46;59.38;;;34.72;;
22606;SDS011;11470;20.968;105.834;2023-02-01T08:05:13;58.20;;;35.95;;
22606;SDS011;11470;20.968;105.834;2023-02-01T08:10:19;57.47;;;34.80;;
22606;SDS011;11470;20.968;105.834;2023-02-01T08:15:30;64.18;;;36.47;;
22606;SDS011;11470;20.968;105.834;2023-02-01T08:20:39;46.95;;;23.08;;
22606;SDS011;11470;20.968;105.834;2023-02-01T08:25:47;56.03;;;30.48;;
22606;SDS011;11470;20.968;105.834;2023-02-01T08:31:03;60.30;;;34.47;;
22606;SDS011;11470;20.968;105.834;2023-02-01T08:36:16;61.80;;;36.95;;
22606;SDS011;11470;20.968;105.834;2023-02-01T08:41:24;72.63;;;42.47;;
22606;SDS011;11470;20.968;105.834;2023-02-01T08:46:32;61.20;;;31.50;;
22606;SDS011;11470;20.968;105.834;2023-02-01T08:51:41;72.10;;;37.53;;
22606;SDS011;11470;20.968;105.834;2023-02-01T08:56:52;91.80;;;55.03;;
22606;SDS011;11470;20.968;105.834;2023-02-01T09:02:00;63.58;;;41.08;;
22606;SDS011;11470;20.968;105.834;2023-02-01T09:12:17;80.88;;;50.88;;
22606;SDS011;11470;20.968;105.834;2023-02-01T09:17:34;103.07;;;60.67;;
22606;SDS011;11470;20.968;105.834;2023-02-01T09:22:45;88.88;;;52.53;;
22606;SDS011;11470;20.968;105.834;2023-02-01T09:27:51;113.40;;;65.88;;
22606;SDS011;11470;20.968;105.834;2023-02-01T09:33:02;83.03;;;47.75;;
22606;SDS011;11470;20.968;105.834;2023-02-01T09:38:09;96.18;;;55.83;;
22606;SDS011;11470;20.968;105.834;2023-02-01T09:48:23;89.90;;;54.13;;
22606;SDS011;11470;20.968;105.834;2023-02-01T09:53:35;111.20;;;63.70;;
22606;SDS011;11470;20.968;105.834;2023-02-01T09:58:53;123.38;;;75.70;;
22606;SDS011;11470;20.968;105.834;2023-02-01T10:04:09;100.63;;;63.80;;
22606;SDS011;11470;20.968;105.834;2023-02-01T10:14:38;93.75;;;57.90;;
22606;SDS011;11470;20.968;105.834;2023-02-01T10:25:31;91.38;;;56.80;;
22606;SDS011;11470;20.968;105.834;2023-02-01T10:30:40;92.88;;;54.95;;
22606;SDS011;11470;20.968;105.834;2023-02-01T10:35:58;113.28;;;67.35;;
22606;SDS011;11470;20.968;105.834;2023-02-01T10:41:21;127.63;;;71.95;;
22606;SDS011;11470;20.968;105.834;2023-02-01T10:46:30;109.57;;;64.18;;
22606;SDS011;11470;20.968;105.834;2023-02-01T10:51:50;106.90;;;62.92;;
22606;SDS011;11470;20.968;105.834;2023-02-01T10:57:00;114.50;;;69.03;;
22606;SDS011;11470;20.968;105.834;2023-02-01T11:07:54;102.55;;;56.42;;
22606;SDS011;11470;20.968;105.834;2023-02-01T11:13:15;113.60;;;56.65;;
22606;SDS011;11470;20.968;105.834;2023-02-01T11:18:29;108.45;;;55.28;;
22606;SDS011;11470;20.968;105.834;2023-02-01T11:23:39;100.68;;;55.28;;
22606;SDS011;11470;20.968;105.834;2023-02-01T11:29:04;106.80;;;57.38;;
22606;SDS011;11470;20.968;105.834;2023-02-01T11:34:24;92.85;;;52.38;;
22606;SDS011;11470;20.968;105.834;2023-02-01T11:39:38;95.07;;;55.35;;
22606;SDS011;11470;20.968;105.834;2023-02-01T11:44:46;101.82;;;55.58;;
22606;SDS011;11470;20.968;105.834;2023-02-01T11:49:59;105.63;;;53.88;;
22606;SDS011;11470;20.968;105.834;2023-02-01T12:00:31;124.60;;;60.85;;
22606;SDS011;11470;20.968;105.834;2023-02-01T12:11:38;103.43;;;56.80;;
22606;SDS011;11470;20.968;105.834;2023-02-01T12:23:10;94.07;;;54.72;;
22606;SDS011;11470;20.968;105.834;2023-02-01T12:34:53;92.10;;;50.92;;
22606;SDS011;11470;20.968;105.834;2023-02-01T12:40:49;92.20;;;50.15;;
22606;SDS011;11470;20.968;105.834;2023-02-01T12:46:35;79.00;;;47.13;;
22606;SDS011;11470;20.968;105.834;2023-02-01T12:53:07;86.45;;;45.75;;
22606;SDS011;11470;20.968;105.834;2023-02-01T13:15:03;77.68;;;39.70;;
22606;SDS011;11470;20.968;105.834;2023-02-01T13:20:41;77.03;;;40.67;;
22606;SDS011;11470;20.968;105.834;2023-02-01T13:27:39;100.82;;;44.70;;
22606;SDS011;11470;20.968;105.834;2023-02-01T13:39:08;91.18;;;54.60;;
22606;SDS011;11470;20.968;105.834;2023-02-01T13:44:40;90.32;;;47.33;;
22606;SDS011;11470;20.968;105.834;2023-02-01T13:56:13;72.18;;;40.53;;
22606;SDS011;11470;20.968;105.834;2023-02-01T14:01:37;70.95;;;41.33;;
22606;SDS011;11470;20.968;105.834;2023-02-01T14:07:34;81.60;;;41.10;;
22606;SDS011;11470;20.968;105.834;2023-02-01T14:13:34;76.97;;;37.60;;
22606;SDS011;11470;20.968;105.834;2023-02-01T14:19:24;65.95;;;36.58;;
22606;SDS011;11470;20.968;105.834;2023-02-01T14:25:00;57.90;;;31.48;;
22606;SDS011;11470;20.968;105.834;2023-02-01T14:30:14;70.78;;;33.35;;
22606;SDS011;11470;20.968;105.834;2023-02-01T14:35:40;65.38;;;35.15;;
22606;SDS011;11470;20.968;105.834;2023-02-01T14:41:23;66.20;;;34.05;;
22606;SDS011;11470;20.968;105.834;2023-02-01T14:52:46;58.22;;;32.35;;
22606;SDS011;11470;20.968;105.834;2023-02-01T15:09:38;55.88;;;28.42;;
22606;SDS011;11470;20.968;105.834;2023-02-01T15:20:30;53.45;;;29.05;;
22606;SDS011;11470;20.968;105.834;2023-02-01T15:26:06;61.55;;;27.67;;
22606;SDS011;11470;20.968;105.834;2023-02-01T15:31:14;59.15;;;27.52;;
22606;SDS011;11470;20.968;105.834;2023-02-01T15:36:42;44.83;;;25.10;;
22606;SDS011;11470;20.968;105.834;2023-02-01T15:42:11;49.67;;;27.42;;
22606;SDS011;11470;20.968;105.834;2023-02-01T15:47:25;48.78;;;25.35;;
22606;SDS011;11470;20.968;105.834;2023-02-01T15:52:37;48.88;;;27.25;;
22606;SDS011;11470;20.968;105.834;2023-02-01T15:57:47;44.72;;;24.33;;
22606;SDS011;11470;20.968;105.834;2023-02-01T16:03:03;49.90;;;23.98;;
22606;SDS011;11470;20.968;105.834;2023-02-01T16:08:14;46.63;;;22.67;;
22606;SDS011;11470;20.968;105.834;2023-02-01T16:13:25;50.13;;;23.52;;
22606;SDS011;11470;20.968;105.834;2023-02-01T16:18:31;50.77;;;25.17;;
22606;SDS011;11470;20.968;105.834;2023-02-01T16:23:37;48.20;;;23.17;;
22606;SDS011;11470;20.968;105.834;2023-02-01T16:28:43;47.75;;;26.00;;
22606;SDS011;11470;20.968;105.834;2023-02-01T16:33:49;44.30;;;23.90;;
22606;SDS011;11470;20.968;105.834;2023-02-01T16:38:56;42.72;;;24.33;;
22606;SDS011;11470;20.968;105.834;2023-02-01T16:49:08;40.45;;;22.55;;
22606;SDS011;11470;20.968;105.834;2023-02-01T16:54:30;43.08;;;23.52;;
22606;SDS011;11470;20.968;105.834;2023-02-01T16:59:36;50.53;;;26.70;;
22606;SDS011;11470;20.968;105.834;2023-02-01T17:04:42;43.33;;;24.42;;
22606;SDS011;11470;20.968;105.834;2023-02-01T17:09:47;50.17;;;25.75;;
22606;SDS011;11470;20.968;105.834;2023-02-01T17:14:54;68.80;;;34.00;;
22606;SDS011;11470;20.968;105.834;2023-02-01T17:20:00;50.40;;;28.42;;
22606;SDS011;11470;20.968;105.834;2023-02-01T17:25:13;50.85;;;28.75;;
22606;SDS011;11470;20.968;105.834;2023-02-01T17:30:23;56.97;;;33.03;;
22606;SDS011;11470;20.968;105.834;2023-02-01T17:35:29;63.10;;;33.15;;
22606;SDS011;11470;20.968;105.834;2023-02-01T17:40:35;62.53;;;32.90;;
22606;SDS011;11470;20.968;105.834;2023-02-01T17:45:45;62.33;;;31.50;;
22606;SDS011;11470;20.968;105.834;2023-02-01T17:50:59;55.47;;;28.10;;
22606;SDS011;11470;20.968;105.834;2023-02-01T18:01:20;48.00;;;26.52;;
22606;SDS011;11470;20.968;105.834;2023-02-01T18:06:28;39.88;;;20.48;;
22606;SDS011;11470;20.968;105.834;2023-02-01T18:11:40;42.22;;;23.75;;
22606;SDS011;11470;20.968;105.834;2023-02-01T18:16:46;37.97;;;21.10;;
22606;SDS011;11470;20.968;105.834;2023-02-01T18:21:52;44.40;;;25.05;;
22606;SDS011;11470;20.968;105.834;2023-02-01T18:27:01;53.75;;;30.55;;
22606;SDS011;11470;20.968;105.834;2023-02-01T18:32:07;57.20;;;29.38;;
22606;SDS011;11470;20.968;105.834;2023-02-01T18:37:14;50.17;;;29.08;;
22606;SDS011;11470;20.968;105.834;2023-02-01T18:42:19;75.75;;;39.38;;
22606;SDS011;11470;20.968;105.834;2023-02-01T18:47:25;65.57;;;37.10;;
22606;SDS011;11470;20.968;105.834;2023-02-01T18:52:30;47.80;;;28.27;;
22606;SDS011;11470;20.968;105.834;2023-02-01T18:57:37;63.20;;;35.47;;
22606;SDS011;11470;20.968;105.834;2023-02-01T19:02:43;47.55;;;27.27;;
22606;SDS011;11470;20.968;105.834;2023-02-01T19:07:49;62.22;;;32.28;;
22606;SDS011;11470;20.968;105.834;2023-02-01T19:12:55;70.28;;;38.97;;
22606;SDS011;11470;20.968;105.834;2023-02-01T19:18:02;83.45;;;43.28;;
22606;SDS011;11470;20.968;105.834;2023-02-01T19:23:08;66.38;;;40.47;;
22606;SDS011;11470;20.968;105.834;2023-02-01T19:28:14;58.80;;;38.43;;
22606;SDS011;11470;20.968;105.834;2023-02-01T19:33:20;62.97;;;32.20;;
22606;SDS011;11470;20.968;105.834;2023-02-01T19:38:26;57.25;;;32.88;;
22606;SDS011;11470;20.968;105.834;2023-02-01T19:43:32;45.65;;;25.02;;
22606;SDS011;11470;20.968;105.834;2023-02-01T19:48:39;54.20;;;30.23;;
22606;SDS011;11470;20.968;105.834;2023-02-01T19:53:45;58.93;;;31.87;;
22606;SDS011;11470;20.968;105.834;2023-02-01T19:58:51;65.07;;;35.95;;
22606;SDS011;11470;20.968;105.834;2023-02-01T20:03:58;67.43;;;37.83;;
22606;SDS011;11470;20.968;105.834;2023-02-01T20:09:09;58.20;;;34.20;;
22606;SDS011;11470;20.968;105.834;2023-02-01T20:14:15;48.87;;;31.23;;
22606;SDS011;11470;20.968;105.834;2023-02-01T20:24:26;55.63;;;31.10;;
22606;SDS011;11470;20.968;105.834;2023-02-01T20:29:32;67.60;;;34.50;;
22606;SDS011;11470;20.968;105.834;2023-02-01T20:34:38;66.70;;;39.90;;
22606;SDS011;11470;20.968;105.834;2023-02-01T20:39:44;48.03;;;28.87;;
22606;SDS011;11470;20.968;105.834;2023-02-01T20:44:50;61.30;;;35.15;;
22606;SDS011;11470;20.968;105.834;2023-02-01T20:49:56;63.20;;;35.27;;
22606;SDS011;11470;20.968;105.834;2023-02-01T20:55:01;58.45;;;34.03;;
22606;SDS011;11470;20.968;105.834;2023-02-01T21:00:08;60.40;;;36.30;;
22606;SDS011;11470;20.968;105.834;2023-02-01T21:05:14;65.55;;;39.47;;
22606;SDS011;11470;20.968;105.834;2023-02-01T21:10:21;71.82;;;42.45;;
22606;SDS011;11470;20.968;105.834;2023-02-01T21:15:26;63.97;;;33.67;;
22606;SDS011;11470;20.968;105.834;2023-02-01T21:20:34;64.32;;;37.90;;
22606;SDS011;11470;20.968;105.834;2023-02-01T21:25:40;56.17;;;34.63;;
22606;SDS011;11470;20.968;105.834;2023-02-01T21:30:46;38.67;;;24.35;;
22606;SDS011;11470;20.968;105.834;2023-02-01T21:35:53;58.38;;;33.83;;
22606;SDS011;11470;20.968;105.834;2023-02-01T21:40:58;73.22;;;38.50;;
22606;SDS011;11470;20.968;105.834;2023-02-01T21:46:23;70.97;;;39.03;;
22606;SDS011;11470;20.968;105.834;2023-02-01T21:51:28;73.75;;;41.83;;
22606;SDS011;11470;20.968;105.834;2023-02-01T21:56:35;69.00;;;37.75;;
22606;SDS011;11470;20.968;105.834;2023-02-01T22:01:41;77.57;;;39.30;;
22606;SDS011;11470;20.968;105.834;2023-02-01T22:06:47;92.97;;;43.53;;
22606;SDS011;11470;20.968;105.834;2023-02-01T22:11:53;94.10;;;47.20;;
22606;SDS011;11470;20.968;105.834;2023-02-01T22:16:59;79.03;;;42.80;;
22606;SDS011;11470;20.968;105.834;2023-02-01T22:22:05;74.10;;;40.17;;
22606;SDS011;11470;20.968;105.834;2023-02-01T22:27:14;83.38;;;42.65;;
22606;SDS011;11470;20.968;105.834;2023-02-01T22:32:20;82.90;;;41.83;;
22606;SDS011;11470;20.968;105.834;2023-02-01T22:37:26;84.75;;;43.28;;
22606;SDS011;11470;20.968;105.834;2023-02-01T22:42:32;79.53;;;43.03;;
22606;SDS011;11470;20.968;105.834;2023-02-01T22:47:38;68.10;;;34.30;;
22606;SDS011;11470;20.968;105.834;2023-02-01T22:52:44;71.40;;;35.03;;
22606;SDS011;11470;20.968;105.834;2023-02-01T22:57:50;61.92;;;30.90;;
22606;SDS011;11470;20.968;105.834;2023-02-01T23:02:55;66.90;;;33.03;;
22606;SDS011;11470;20.968;105.834;2023-02-01T23:08:01;88.90;;;42.13;;
22606;SDS011;11470;20.968;105.834;2023-02-01T23:13:07;59.07;;;32.43;;
22606;SDS011;11470;20.968;105.834;2023-02-01T23:18:14;78.47;;;37.47;;
22606;SDS011;11470;20.968;105.834;2023-02-01T23:23:19;86.25;;;41.83;;
22606;SDS011;11470;20.968;105.834;2023-02-01T23:28:27;72.47;;;36.30;;
22606;SDS011;11470;20.968;105.834;2023-02-01T23:33:33;76.22;;;38.70;;
22606;SDS011;11470;20.968;105.834;2023-02-01T23:38:43;82.10;;;40.53;;
22606;SDS011;11470;20.968;105.834;2023-02-01T23:43:49;76.32;;;38.88;;
22606;SDS011;11470;20.968;105.834;2023-02-01T23:49:02;61.45;;;32.22;;
22606;SDS011;11470;20.968;105.834;2023-02-01T23:54:10;46.45;;;25.95;;
22606;SDS011;11470;20.968;105.834;2023-02-01T23:59:18;56.78;;;33.10;;
